Decoded Metar for ULLI (ST. PETERSBURG in RUSSIA) (IATA:LED) | Meteo·Mobile Aviation Weather
aviador You're here:

ULLI Decoded Metar

ST. PETERSBURG in RUSSIA
Report Time2018-10-19 09:00:00
UTC Time2018-10-19 09:17:59
Flight Rules mvfr MVFR
Wind270° at 14 kt
W.Decomp.*RWY 28: 13.2 kt HW 4.6 kt LCW
W.Rank270° ranks 1
Current wind is above 270° avg. (8.2)
Visibility9999 m
Phenomena:N/A
Clouds:Broken 022 Hf
Expected CloudBase > 2,000 ft AGL from Temp-Dew spread
Ceiling2,200 ft
Temp11°C (ISA -4)
Dew Point06°C (72% RH)
AAT5.1°C
QNH1016 hPa
Density Alt-436 ft
Elevation13 ft
Report Wrong Elevation
Raw Report
ULLI 190900Z 27007MPS 230V290 9999 BKN022 11/06 Q1016 R88/090060
NOSIG=

Extra information for ULLI:More info

Metar Taf Metar & Taf Last 4 Metars F.Rules Stats Wind Profile Meteogram Temp Stats Airport Information Weather charts Add Link Nearby VenuesMetar ALERT Operation Metar Decoded Social comments